Time;durP1;ratioP1;P1;durP2;ratioP2;P2;SDS_P1;SDS_P2;PMS_P1;PMS_P2;Temp;Humidity;BMP_temperature;BMP_pressure;BME280_temperature;BME280_humidity;BME280_pressure;Samples;Min_cycle;Max_cycle;Signal;HPM_P1;HPM_P2
2021/05/14 00:00:43;;;;;;;10.55;7.25;;;;;;;;;;5075067;28;21083;-68
2021/05/14 00:03:09;;;;;;;9.55;7.10;;;;;;;;;;5078987;28;20390;-68
2021/05/14 00:05:35;;;;;;;8.57;6.80;;;;;;;;;;5078755;28;20398;-68
2021/05/14 00:08:03;;;;;;;11.52;7.60;;;;;;;;;;5076971;28;20395;-68
2021/05/14 00:10:29;;;;;;;11.57;7.68;;;;;;;;;;5078216;28;20434;-67
2021/05/14 00:12:55;;;;;;;9.87;7.73;;;;;;;;;;5079260;28;20385;-68
2021/05/14 00:15:22;;;;;;;12.65;7.70;;;;;;;;;;5074739;28;20455;-68
2021/05/14 00:17:49;;;;;;;8.68;7.10;;;;;;;;;;5078117;28;21027;-68
2021/05/14 00:20:15;;;;;;;10.77;6.90;;;;;;;;;;5077816;28;20484;-68
2021/05/14 00:22:41;;;;;;;10.45;7.38;;;;;;;;;;5075953;28;20482;-68
2021/05/14 00:25:08;;;;;;;11.65;7.18;;;;;;;;;;5076970;28;20861;-68
2021/05/14 00:27:34;;;;;;;10.70;6.70;;;;;;;;;;5078606;28;20390;-69
2021/05/14 00:30:00;;;;;;;11.75;6.85;;;;;;;;;;5075266;28;20480;-68
2021/05/14 00:32:26;;;;;;;9.53;6.90;;;;;;;;;;5073981;28;20492;-68
2021/05/14 00:34:52;;;;;;;11.77;6.45;;;;;;;;;;5074726;28;20427;-68
2021/05/14 00:37:18;;;;;;;8.60;6.07;;;;;;;;;;5075422;28;20398;-68
2021/05/14 00:39:44;;;;;;;9.10;6.53;;;;;;;;;;5077521;28;20809;-68
2021/05/14 00:42:10;;;;;;;9.93;6.63;;;;;;;;;;5075068;28;21039;-68
2021/05/14 00:44:37;;;;;;;9.38;6.45;;;;;;;;;;5077360;28;20406;-68
2021/05/14 00:47:05;;;;;;;8.70;6.32;;;;;;;;;;5075071;28;20868;-68
2021/05/14 00:49:31;;;;;;;10.45;6.72;;;;;;;;;;5074713;28;21267;-68
2021/05/14 00:51:58;;;;;;;9.88;6.57;;;;;;;;;;5075346;28;20669;-67
2021/05/14 00:54:24;;;;;;;12.15;6.50;;;;;;;;;;5077062;28;20424;-67
2021/05/14 00:56:50;;;;;;;9.55;6.32;;;;;;;;;;5074812;28;20400;-67
2021/05/14 00:59:16;;;;;;;8.07;5.80;;;;;;;;;;5076370;28;20406;-68
2021/05/14 01:01:42;;;;;;;7.80;5.90;;;;;;;;;;5076835;28;20524;-67
2021/05/14 01:04:08;;;;;;;10.15;5.97;;;;;;;;;;5072717;28;20811;-68
2021/05/14 01:06:34;;;;;;;9.65;6.78;;;;;;;;;;5073338;28;20471;-68
2021/05/14 01:09:00;;;;;;;8.85;6.53;;;;;;;;;;5081328;28;20934;-67
2021/05/14 01:11:26;;;;;;;8.77;6.13;;;;;;;;;;5076288;28;20860;-67
2021/05/14 01:13:53;;;;;;;9.82;6.65;;;;;;;;;;5075638;28;20403;-67
2021/05/14 01:16:20;;;;;;;9.07;6.50;;;;;;;;;;5075892;28;20413;-68
2021/05/14 01:18:46;;;;;;;10.30;6.70;;;;;;;;;;5077286;28;20484;-68
2021/05/14 01:21:12;;;;;;;9.18;6.45;;;;;;;;;;5071870;28;20399;-68
2021/05/14 01:23:38;;;;;;;8.65;6.20;;;;;;;;;;5077536;28;20391;-68
2021/05/14 01:26:11;;;;;;;7.90;6.13;;;;;;;;;;5076823;28;20397;-68
2021/05/14 01:28:37;;;;;;;10.38;6.80;;;;;;;;;;5074194;28;20397;-67
2021/05/14 01:31:03;;;;;;;9.43;6.50;;;;;;;;;;5076772;28;20404;-67
2021/05/14 01:33:30;;;;;;;9.90;6.95;;;;;;;;;;5074221;28;20978;-68
2021/05/14 01:35:56;;;;;;;11.07;7.43;;;;;;;;;;5074358;28;20416;-68
2021/05/14 01:38:22;;;;;;;11.25;7.03;;;;;;;;;;5070892;28;20397;-68
2021/05/14 01:40:48;;;;;;;10.82;6.75;;;;;;;;;;5073650;28;20408;-67
2021/05/14 01:43:14;;;;;;;8.00;6.18;;;;;;;;;;5075893;28;20394;-67
2021/05/14 01:45:40;;;;;;;10.00;7.10;;;;;;;;;;5077508;28;20422;-68
2021/05/14 01:48:06;;;;;;;9.48;6.70;;;;;;;;;;5075453;28;20399;-67
2021/05/14 01:50:32;;;;;;;9.05;6.82;;;;;;;;;;5076604;28;20397;-67
2021/05/14 01:52:58;;;;;;;10.23;6.70;;;;;;;;;;5078687;28;20390;-67
2021/05/14 01:55:24;;;;;;;9.90;7.17;;;;;;;;;;5074324;28;20550;-68
2021/05/14 01:57:50;;;;;;;9.52;6.57;;;;;;;;;;5074792;28;20401;-68
2021/05/14 02:00:16;;;;;;;9.63;7.00;;;;;;;;;;5075889;28;20393;-68
2021/05/14 02:02:42;;;;;;;8.70;6.83;;;;;;;;;;5074664;28;20415;-67
2021/05/14 02:05:08;;;;;;;11.13;7.10;;;;;;;;;;5074808;28;20469;-68
2021/05/14 02:07:35;;;;;;;12.40;7.33;;;;;;;;;;5075654;28;20903;-68
2021/05/14 02:10:01;;;;;;;8.88;6.80;;;;;;;;;;5072317;28;20429;-67
2021/05/14 02:12:27;;;;;;;10.82;6.85;;;;;;;;;;5075028;28;20813;-67
2021/05/14 02:14:53;;;;;;;8.55;6.90;;;;;;;;;;5072505;28;20419;-68
2021/05/14 02:17:19;;;;;;;10.48;7.28;;;;;;;;;;5074089;28;20737;-67
2021/05/14 02:19:44;;;;;;;10.05;7.03;;;;;;;;;;5074129;28;20886;-67
2021/05/14 02:22:10;;;;;;;8.38;6.30;;;;;;;;;;5072916;28;20408;-67
2021/05/14 02:24:36;;;;;;;12.60;7.47;;;;;;;;;;5075530;28;20808;-67
2021/05/14 02:27:03;;;;;;;9.15;7.05;;;;;;;;;;5073369;28;20414;-68
2021/05/14 02:29:33;;;;;;;10.52;7.82;;;;;;;;;;5074936;28;20720;-67
2021/05/14 02:32:00;;;;;;;8.67;7.03;;;;;;;;;;5076169;28;20402;-69
2021/05/14 02:34:26;;;;;;;11.13;7.57;;;;;;;;;;5071372;28;21386;-67
2021/05/14 02:36:52;;;;;;;10.98;7.07;;;;;;;;;;5075620;28;20409;-67
2021/05/14 02:39:18;;;;;;;11.57;6.78;;;;;;;;;;5074154;28;20985;-67
2021/05/14 02:41:44;;;;;;;9.10;6.95;;;;;;;;;;5076091;28;21120;-69
2021/05/14 02:44:10;;;;;;;11.27;7.70;;;;;;;;;;5077009;28;20424;-68
2021/05/14 02:46:36;;;;;;;11.20;7.97;;;;;;;;;;5078705;28;20444;-69
2021/05/14 02:49:04;;;;;;;11.25;7.63;;;;;;;;;;5074013;28;20434;-68
2021/05/14 02:51:30;;;;;;;10.55;7.75;;;;;;;;;;5076846;28;20815;-68
2021/05/14 02:53:56;;;;;;;11.65;8.30;;;;;;;;;;5078192;28;20403;-67
2021/05/14 02:56:22;;;;;;;12.07;9.10;;;;;;;;;;5081234;28;21739;-68
2021/05/14 02:58:47;;;;;;;13.43;9.18;;;;;;;;;;5079853;28;20748;-67
2021/05/14 03:01:13;;;;;;;11.52;8.25;;;;;;;;;;5077502;28;20399;-68
2021/05/14 03:03:39;;;;;;;10.50;8.82;;;;;;;;;;5079606;28;20400;-68
2021/05/14 03:06:05;;;;;;;13.43;9.17;;;;;;;;;;5076031;28;20477;-68
2021/05/14 03:08:31;;;;;;;13.43;9.48;;;;;;;;;;5078628;28;20462;-67
2021/05/14 03:10:57;;;;;;;11.15;9.30;;;;;;;;;;5079002;28;20838;-69
2021/05/14 03:13:23;;;;;;;11.73;9.03;;;;;;;;;;5078538;28;20483;-67
2021/05/14 03:15:49;;;;;;;11.75;9.30;;;;;;;;;;5081395;28;20875;-68
2021/05/14 03:18:15;;;;;;;14.60;10.52;;;;;;;;;;5077951;28;20438;-68
2021/05/14 03:20:41;;;;;;;13.70;9.75;;;;;;;;;;5076853;28;20448;-68
2021/05/14 03:23:07;;;;;;;13.80;9.67;;;;;;;;;;5078591;28;20409;-67
2021/05/14 03:25:33;;;;;;;13.75;10.07;;;;;;;;;;5078860;28;20857;-68
2021/05/14 03:27:59;;;;;;;11.93;9.93;;;;;;;;;;5076199;28;20459;-68
2021/05/14 03:30:26;;;;;;;12.13;9.63;;;;;;;;;;5075113;28;20403;-68
2021/05/14 03:32:53;;;;;;;14.88;10.05;;;;;;;;;;5078596;28;20397;-68
2021/05/14 03:35:19;;;;;;;14.07;10.55;;;;;;;;;;5078276;28;20447;-68
2021/05/14 03:37:45;;;;;;;12.98;10.07;;;;;;;;;;5077889;28;20403;-67
2021/05/14 03:40:19;;;;;;;14.15;10.63;;;;;;;;;;5078044;28;20415;-67
2021/05/14 03:42:45;;;;;;;13.15;10.30;;;;;;;;;;5075932;28;20387;-67
2021/05/14 03:45:12;;;;;;;13.10;10.73;;;;;;;;;;5077532;28;20859;-68
2021/05/14 03:47:38;;;;;;;13.25;10.88;;;;;;;;;;5078441;28;20413;-67
2021/05/14 03:50:05;;;;;;;13.35;10.57;;;;;;;;;;5073985;28;20409;-68
2021/05/14 03:52:32;;;;;;;14.73;10.67;;;;;;;;;;5075417;28;20501;-68
2021/05/14 03:54:59;;;;;;;17.37;11.33;;;;;;;;;;5078620;28;20516;-67
2021/05/14 03:57:25;;;;;;;13.85;11.13;;;;;;;;;;5080543;28;21134;-67
2021/05/14 03:59:51;;;;;;;15.90;12.13;;;;;;;;;;5073462;28;20409;-68
2021/05/14 04:02:17;;;;;;;14.35;12.00;;;;;;;;;;5077113;28;20410;-67
2021/05/14 04:04:43;;;;;;;18.05;12.00;;;;;;;;;;5076761;28;20720;-68
2021/05/14 04:07:09;;;;;;;14.10;11.17;;;;;;;;;;5077872;28;21401;-68
2021/05/14 04:09:38;;;;;;;13.57;10.90;;;;;;;;;;5077509;28;21340;-67
2021/05/14 04:14:30;;;;;;;16.45;12.43;;;;;;;;;;5077327;28;20504;-67
2021/05/14 04:17:00;;;;;;;14.73;11.50;;;;;;;;;;5076205;28;20406;-67
2021/05/14 04:19:26;;;;;;;14.15;11.90;;;;;;;;;;5074870;28;21582;-67
2021/05/14 04:21:54;;;;;;;17.25;12.73;;;;;;;;;;5079366;28;20397;-67
2021/05/14 04:24:20;;;;;;;14.02;11.55;;;;;;;;;;5078273;28;20398;-67
2021/05/14 04:26:47;;;;;;;18.77;13.25;;;;;;;;;;5076711;28;20420;-67
2021/05/14 04:29:13;;;;;;;14.93;11.60;;;;;;;;;;5075162;28;22200;-68
2021/05/14 04:31:41;;;;;;;14.27;11.70;;;;;;;;;;5075176;28;20423;-68
2021/05/14 04:34:07;;;;;;;16.60;12.52;;;;;;;;;;5074761;28;20409;-67
2021/05/14 04:36:33;;;;;;;14.83;13.17;;;;;;;;;;5075634;28;20402;-67
2021/05/14 04:38:59;;;;;;;15.65;12.85;;;;;;;;;;5079763;28;20420;-67
2021/05/14 04:41:25;;;;;;;14.57;12.20;;;;;;;;;;5078879;28;20513;-67
2021/05/14 04:43:51;;;;;;;15.68;12.60;;;;;;;;;;5078594;28;20418;-67
2021/05/14 04:46:17;;;;;;;15.50;12.82;;;;;;;;;;5074465;28;20436;-68
2021/05/14 04:48:43;;;;;;;16.33;13.20;;;;;;;;;;5077723;28;20514;-67
2021/05/14 04:51:09;;;;;;;16.70;12.63;;;;;;;;;;5075983;28;20401;-67
2021/05/14 04:53:36;;;;;;;15.60;12.48;;;;;;;;;;5074884;28;20876;-68
2021/05/14 04:56:03;;;;;;;16.02;13.00;;;;;;;;;;5068110;28;20467;-67
2021/05/14 04:58:29;;;;;;;14.77;12.70;;;;;;;;;;5070701;28;20403;-67
2021/05/14 05:00:55;;;;;;;18.00;13.32;;;;;;;;;;5079669;28;20412;-68
2021/05/14 05:03:21;;;;;;;14.75;12.98;;;;;;;;;;5077074;28;21144;-68
2021/05/14 05:05:48;;;;;;;15.18;12.55;;;;;;;;;;5076285;28;20409;-67
2021/05/14 05:08:14;;;;;;;16.10;13.30;;;;;;;;;;5076714;28;20391;-67
2021/05/14 05:10:40;;;;;;;15.60;13.57;;;;;;;;;;5080120;28;20390;-67
2021/05/14 05:13:06;;;;;;;16.83;13.77;;;;;;;;;;5083703;28;20390;-67
2021/05/14 05:15:32;;;;;;;15.47;12.87;;;;;;;;;;5073302;28;20426;-69
2021/05/14 05:17:58;;;;;;;16.90;13.35;;;;;;;;;;5078055;28;20410;-67
2021/05/14 05:20:24;;;;;;;15.68;13.95;;;;;;;;;;5084503;28;20390;-67
2021/05/14 05:22:50;;;;;;;15.30;13.53;;;;;;;;;;5082410;28;20401;-68
2021/05/14 05:25:17;;;;;;;16.17;13.77;;;;;;;;;;5075058;28;20405;-67
2021/05/14 05:27:43;;;;;;;15.15;13.45;;;;;;;;;;5084527;28;20394;-67
2021/05/14 05:30:09;;;;;;;16.55;13.55;;;;;;;;;;5080844;28;20402;-67
2021/05/14 05:32:35;;;;;;;16.40;13.13;;;;;;;;;;5079245;28;21216;-67
2021/05/14 05:35:01;;;;;;;15.35;13.20;;;;;;;;;;5070635;28;20420;-67
2021/05/14 05:37:27;;;;;;;16.50;13.45;;;;;;;;;;5077596;28;20414;-67
2021/05/14 05:39:53;;;;;;;18.45;13.77;;;;;;;;;;5076309;28;20414;-67
2021/05/14 05:42:19;;;;;;;16.50;13.43;;;;;;;;;;5073666;28;20442;-66
2021/05/14 05:44:45;;;;;;;17.50;13.48;;;;;;;;;;5080672;28;20416;-67
2021/05/14 05:47:11;;;;;;;18.00;13.25;;;;;;;;;;5075928;28;20449;-67
2021/05/14 05:49:37;;;;;;;16.17;12.65;;;;;;;;;;5075271;28;20446;-67
2021/05/14 05:52:03;;;;;;;15.80;12.25;;;;;;;;;;5075193;28;20431;-67
2021/05/14 05:54:29;;;;;;;15.93;13.33;;;;;;;;;;5076642;28;20416;-68
2021/05/14 05:56:57;;;;;;;15.23;12.23;;;;;;;;;;5074347;28;20407;-67
2021/05/14 05:59:23;;;;;;;16.08;12.95;;;;;;;;;;5080001;28;20390;-67
2021/05/14 06:01:50;;;;;;;16.73;13.63;;;;;;;;;;5075878;28;20507;-67
2021/05/14 06:04:16;;;;;;;17.20;13.20;;;;;;;;;;5076354;28;20431;-67
2021/05/14 06:06:42;;;;;;;15.57;12.88;;;;;;;;;;5078890;28;20416;-67
2021/05/14 06:09:08;;;;;;;15.45;12.23;;;;;;;;;;5072629;28;20399;-67
2021/05/14 06:11:34;;;;;;;16.08;12.30;;;;;;;;;;5081158;28;20394;-67
2021/05/14 06:14:00;;;;;;;15.82;12.63;;;;;;;;;;5076238;28;20406;-68
2021/05/14 06:16:27;;;;;;;14.98;12.73;;;;;;;;;;5082097;28;20477;-67
2021/05/14 06:19:00;;;;;;;15.55;12.98;;;;;;;;;;5073610;28;20399;-67
2021/05/14 06:21:26;;;;;;;17.38;13.75;;;;;;;;;;5080272;28;20399;-67
2021/05/14 06:23:52;;;;;;;18.48;13.77;;;;;;;;;;5074435;28;20410;-67
2021/05/14 06:26:18;;;;;;;19.67;13.35;;;;;;;;;;5076073;28;20483;-67
2021/05/14 06:28:44;;;;;;;17.53;12.93;;;;;;;;;;5081385;28;20478;-67
2021/05/14 06:31:10;;;;;;;16.73;13.10;;;;;;;;;;5070676;28;20441;-67
2021/05/14 06:33:36;;;;;;;17.65;13.20;;;;;;;;;;5086046;28;20409;-67
2021/05/14 06:36:02;;;;;;;17.98;13.75;;;;;;;;;;5085019;28;20424;-67
2021/05/14 06:38:28;;;;;;;14.63;12.55;;;;;;;;;;5084110;28;20431;-67
2021/05/14 06:40:54;;;;;;;14.88;12.35;;;;;;;;;;5080961;28;20865;-67
2021/05/14 06:43:21;;;;;;;16.20;12.43;;;;;;;;;;5086483;28;20504;-67
2021/05/14 06:45:47;;;;;;;17.60;13.25;;;;;;;;;;5074937;28;20390;-66
2021/05/14 06:48:16;;;;;;;15.50;13.05;;;;;;;;;;5075859;28;20879;-67
2021/05/14 06:50:42;;;;;;;15.13;12.80;;;;;;;;;;5082963;28;20463;-67
2021/05/14 06:53:09;;;;;;;15.73;13.18;;;;;;;;;;5070874;28;20433;-67
2021/05/14 06:55:35;;;;;;;17.85;14.07;;;;;;;;;;5076718;28;20582;-68
2021/05/14 06:58:04;;;;;;;16.95;13.95;;;;;;;;;;5074080;28;20486;-67
2021/05/14 07:00:32;;;;;;;17.80;14.65;;;;;;;;;;5082144;28;20413;-67
2021/05/14 07:02:58;;;;;;;18.02;14.35;;;;;;;;;;5082890;28;20406;-68
2021/05/14 07:05:24;;;;;;;17.15;14.25;;;;;;;;;;5083917;28;20591;-68
2021/05/14 07:07:52;;;;;;;19.17;15.40;;;;;;;;;;5079230;28;20402;-67
2021/05/14 07:10:18;;;;;;;20.80;15.98;;;;;;;;;;5086326;28;20398;-68
2021/05/14 07:12:43;;;;;;;19.73;14.57;;;;;;;;;;5086109;28;20946;-67
2021/05/14 07:15:10;;;;;;;19.23;15.02;;;;;;;;;;5071330;28;20843;-68
2021/05/14 07:17:36;;;;;;;18.63;14.55;;;;;;;;;;5081918;28;20417;-67
2021/05/14 07:20:03;;;;;;;17.52;13.65;;;;;;;;;;5076359;28;20435;-67
2021/05/14 07:22:29;;;;;;;16.20;12.40;;;;;;;;;;5082046;28;20407;-67
2021/05/14 07:24:55;;;;;;;18.87;13.93;;;;;;;;;;5080813;28;20406;-69
2021/05/14 07:27:21;;;;;;;20.83;13.55;;;;;;;;;;5080851;28;20505;-67
2021/05/14 07:29:47;;;;;;;19.17;13.70;;;;;;;;;;5076283;28;20395;-67
2021/05/14 07:32:13;;;;;;;20.80;14.20;;;;;;;;;;5080605;28;20401;-67
2021/05/14 07:34:39;;;;;;;19.27;14.30;;;;;;;;;;5088368;28;20401;-67
2021/05/14 07:37:06;;;;;;;21.15;14.90;;;;;;;;;;5076567;28;20477;-67
2021/05/14 07:39:33;;;;;;;18.67;14.30;;;;;;;;;;5081899;28;20445;-67
2021/05/14 07:41:59;;;;;;;18.42;13.77;;;;;;;;;;5088644;28;20496;-67
2021/05/14 07:44:25;;;;;;;22.13;14.40;;;;;;;;;;5078411;28;20885;-67
2021/05/14 07:46:51;;;;;;;18.83;13.87;;;;;;;;;;5081588;28;20426;-67
2021/05/14 07:49:17;;;;;;;17.90;13.40;;;;;;;;;;5081104;28;20390;-68
2021/05/14 07:51:43;;;;;;;16.95;13.30;;;;;;;;;;5080910;28;20465;-67
2021/05/14 07:54:09;;;;;;;18.95;13.85;;;;;;;;;;5084184;28;20393;-68
2021/05/14 07:56:35;;;;;;;17.67;13.07;;;;;;;;;;5080753;28;20680;-68
2021/05/14 07:59:01;;;;;;;17.80;12.82;;;;;;;;;;5081100;28;20897;-68
2021/05/14 08:01:28;;;;;;;20.38;12.38;;;;;;;;;;5084736;28;20919;-69
2021/05/14 08:03:54;;;;;;;19.02;12.43;;;;;;;;;;5080429;28;20388;-68
2021/05/14 08:06:21;;;;;;;19.43;12.50;;;;;;;;;;5082704;28;20399;-66
2021/05/14 08:08:48;;;;;;;16.63;10.98;;;;;;;;;;5084099;28;20398;-67
2021/05/14 08:11:14;;;;;;;15.85;10.80;;;;;;;;;;5080855;28;20945;-68
2021/05/14 08:13:40;;;;;;;17.80;11.80;;;;;;;;;;5080517;28;20422;-69
2021/05/14 08:16:06;;;;;;;17.73;11.32;;;;;;;;;;5076906;28;20537;-67
2021/05/14 08:18:32;;;;;;;16.52;11.15;;;;;;;;;;5083615;28;20388;-66
2021/05/14 08:20:58;;;;;;;15.57;10.15;;;;;;;;;;5082354;28;20480;-66
2021/05/14 08:23:24;;;;;;;18.50;10.30;;;;;;;;;;5079543;28;20853;-66
2021/05/14 08:25:51;;;;;;;13.68;9.38;;;;;;;;;;5075574;28;20428;-66
2021/05/14 08:28:17;;;;;;;12.32;9.20;;;;;;;;;;5074919;28;20395;-66
2021/05/14 08:30:44;;;;;;;16.10;9.48;;;;;;;;;;5076493;28;20392;-67
2021/05/14 08:33:10;;;;;;;12.55;8.93;;;;;;;;;;5081630;28;20394;-66
2021/05/14 08:35:36;;;;;;;9.73;8.10;;;;;;;;;;5085027;28;20432;-67
2021/05/14 08:38:04;;;;;;;11.38;8.07;;;;;;;;;;5082062;28;21798;-67
2021/05/14 08:40:30;;;;;;;9.65;7.45;;;;;;;;;;5079082;28;20509;-67
2021/05/14 08:42:56;;;;;;;8.52;7.32;;;;;;;;;;5083068;28;20410;-67
2021/05/14 08:45:22;;;;;;;9.93;7.80;;;;;;;;;;5077438;28;20390;-67
2021/05/14 08:47:48;;;;;;;10.75;7.97;;;;;;;;;;5088223;28;20419;-67
2021/05/14 08:50:15;;;;;;;10.18;7.55;;;;;;;;;;5084096;28;20866;-67
2021/05/14 08:52:42;;;;;;;18.05;8.23;;;;;;;;;;5077485;28;20879;-68
2021/05/14 08:55:09;;;;;;;16.47;8.43;;;;;;;;;;5087675;28;20508;-67
2021/05/14 08:57:35;;;;;;;11.75;8.95;;;;;;;;;;5076318;28;20441;-67
2021/05/14 09:00:01;;;;;;;10.77;7.78;;;;;;;;;;5080010;28;20394;-67
2021/05/14 09:02:27;;;;;;;10.90;8.07;;;;;;;;;;5069060;28;20396;-67
2021/05/14 09:04:53;;;;;;;10.20;7.78;;;;;;;;;;5069991;28;20452;-67
2021/05/14 09:07:20;;;;;;;9.38;7.30;;;;;;;;;;5088715;28;20371;-67
2021/05/14 09:10:05;;;;;;;8.35;7.30;;;;;;;;;;5078549;28;20752;-67
2021/05/14 09:12:32;;;;;;;8.17;6.97;;;;;;;;;;5068602;28;20376;-67
2021/05/14 09:14:58;;;;;;;8.98;6.63;;;;;;;;;;5084048;28;20422;-67
2021/05/14 09:17:26;;;;;;;8.13;6.63;;;;;;;;;;5084723;28;20400;-67
2021/05/14 09:19:52;;;;;;;11.82;6.63;;;;;;;;;;5083132;28;20393;-67
2021/05/14 09:22:20;;;;;;;9.07;6.30;;;;;;;;;;5084259;28;20397;-68
2021/05/14 09:24:48;;;;;;;10.93;6.85;;;;;;;;;;5081951;28;20484;-68
2021/05/14 09:27:33;;;;;;;8.45;6.55;;;;;;;;;;5084014;28;20401;-67
2021/05/14 09:30:02;;;;;;;10.97;6.67;;;;;;;;;;5076348;28;20451;-68
2021/05/14 09:32:29;;;;;;;8.65;7.10;;;;;;;;;;5073726;28;20494;-67
2021/05/14 09:34:56;;;;;;;8.20;6.50;;;;;;;;;;5083405;28;20422;-68
2021/05/14 09:37:25;;;;;;;10.48;7.45;;;;;;;;;;5077332;28;20778;-67
2021/05/14 09:40:11;;;;;;;9.50;7.13;;;;;;;;;;5078181;28;20415;-67
2021/05/14 09:42:37;;;;;;;10.07;7.50;;;;;;;;;;5080541;28;20460;-67
2021/05/14 09:45:22;;;;;;;10.02;6.93;;;;;;;;;;5087690;28;20767;-67
2021/05/14 09:48:02;;;;;;;9.55;6.80;;;;;;;;;;5082742;28;20839;-67
2021/05/14 09:50:30;;;;;;;10.30;6.43;;;;;;;;;;5075300;28;20378;-67
2021/05/14 09:53:15;;;;;;;9.60;6.87;;;;;;;;;;5080039;28;20387;-67
2021/05/14 09:56:04;;;;;;;8.48;6.72;;;;;;;;;;5078553;28;20427;-67
2021/05/14 09:58:31;;;;;;;9.40;6.90;;;;;;;;;;5080647;28;20418;-69
2021/05/14 10:00:58;;;;;;;10.77;8.00;;;;;;;;;;5092575;28;20459;-67
2021/05/14 10:03:26;;;;;;;9.48;7.40;;;;;;;;;;5081914;28;20467;-68
2021/05/14 10:05:52;;;;;;;8.85;6.85;;;;;;;;;;5082869;28;20887;-67
2021/05/14 10:08:20;;;;;;;8.25;6.82;;;;;;;;;;5080669;28;20527;-67
2021/05/14 10:10:46;;;;;;;9.18;7.03;;;;;;;;;;5092381;28;21121;-67
2021/05/14 10:13:12;;;;;;;10.10;7.15;;;;;;;;;;5074858;28;20384;-66
2021/05/14 10:15:38;;;;;;;9.63;6.85;;;;;;;;;;5084991;28;21308;-66
2021/05/14 10:18:07;;;;;;;11.52;6.85;;;;;;;;;;5084300;28;20393;-68
2021/05/14 10:20:34;;;;;;;9.43;7.03;;;;;;;;;;5082571;28;20403;-67
2021/05/14 10:23:01;;;;;;;10.18;7.00;;;;;;;;;;5082737;28;20494;-67
2021/05/14 10:25:44;;;;;;;10.68;8.32;;;;;;;;;;5075149;28;20394;-66
2021/05/14 10:28:15;;;;;;;11.98;8.60;;;;;;;;;;5088747;28;20732;-66
2021/05/14 10:31:00;;;;;;;10.43;8.03;;;;;;;;;;5085368;28;20940;-67
2021/05/14 10:33:45;;;;;;;11.15;8.65;;;;;;;;;;5075837;28;20399;-66
2021/05/14 10:36:12;;;;;;;9.50;7.57;;;;;;;;;;5085630;28;20807;-66
2021/05/14 10:38:39;;;;;;;9.18;7.65;;;;;;;;;;5088268;28;20407;-67
2021/05/14 10:41:23;;;;;;;10.18;7.32;;;;;;;;;;5081980;28;20398;-67
2021/05/14 10:44:05;;;;;;;10.83;7.53;;;;;;;;;;5080482;28;20478;-66
2021/05/14 10:46:32;;;;;;;18.63;7.50;;;;;;;;;;5077390;28;20413;-66
2021/05/14 10:49:14;;;;;;;12.07;7.22;;;;;;;;;;5080290;28;20397;-66
2021/05/14 10:51:46;;;;;;;11.55;7.75;;;;;;;;;;5088123;28;20461;-67
2021/05/14 10:54:32;;;;;;;12.13;7.13;;;;;;;;;;5084426;28;20424;-66
2021/05/14 10:56:58;;;;;;;10.75;8.25;;;;;;;;;;5074873;28;20419;-67
2021/05/14 10:59:29;;;;;;;13.80;8.40;;;;;;;;;;5074838;28;20399;-66
2021/05/14 11:01:57;;;;;;;14.02;10.02;;;;;;;;;;5080277;28;20429;-66
2021/05/14 11:04:40;;;;;;;11.73;8.73;;;;;;;;;;5082333;28;20393;-67
2021/05/14 11:07:06;;;;;;;11.10;8.20;;;;;;;;;;5081359;28;20408;-67
2021/05/14 11:09:32;;;;;;;11.23;8.25;;;;;;;;;;5085029;28;20729;-68
2021/05/14 11:12:01;;;;;;;12.02;8.25;;;;;;;;;;5074858;28;20408;-68
2021/05/14 11:14:27;;;;;;;11.48;7.90;;;;;;;;;;5078793;28;20791;-69
2021/05/14 11:16:56;;;;;;;11.27;7.25;;;;;;;;;;5083467;28;20399;-69
2021/05/14 11:19:23;;;;;;;10.38;7.45;;;;;;;;;;5073038;28;20459;-68
2021/05/14 11:22:01;;;;;;;10.63;7.23;;;;;;;;;;5075414;28;20392;-69
2021/05/14 11:24:30;;;;;;;9.43;7.13;;;;;;;;;;5075132;28;20730;-67
2021/05/14 11:27:03;;;;;;;11.65;7.32;;;;;;;;;;5080900;28;20390;-69
2021/05/14 11:29:30;;;;;;;10.95;7.68;;;;;;;;;;5086489;28;20391;-66
2021/05/14 11:31:56;;;;;;;11.90;7.57;;;;;;;;;;5086249;28;20400;-66
2021/05/14 11:34:22;;;;;;;9.85;7.28;;;;;;;;;;5082826;28;20781;-66
2021/05/14 11:36:48;;;;;;;10.00;6.47;;;;;;;;;;5079312;28;20406;-67
2021/05/14 11:39:22;;;;;;;11.40;7.50;;;;;;;;;;5079278;28;20416;-66
2021/05/14 11:41:48;;;;;;;12.60;7.80;;;;;;;;;;5079651;28;20428;-67
2021/05/14 11:44:14;;;;;;;12.30;7.38;;;;;;;;;;5081413;28;20450;-67
2021/05/14 11:46:43;;;;;;;11.60;7.82;;;;;;;;;;5087498;28;20410;-66
2021/05/14 11:49:10;;;;;;;9.88;6.72;;;;;;;;;;5085913;28;21153;-67
2021/05/14 11:51:38;;;;;;;11.85;6.30;;;;;;;;;;5088501;28;20385;-67
2021/05/14 11:54:08;;;;;;;12.57;7.60;;;;;;;;;;5077658;28;20494;-67
2021/05/14 11:56:34;;;;;;;14.50;7.68;;;;;;;;;;5079835;28;20416;-67
2021/05/14 11:59:00;;;;;;;21.30;8.33;;;;;;;;;;5079833;28;20428;-66
2021/05/14 12:01:38;;;;;;;16.90;8.20;;;;;;;;;;5082547;28;20394;-66
2021/05/14 12:04:04;;;;;;;19.23;8.82;;;;;;;;;;5072574;28;20922;-66
2021/05/14 12:06:30;;;;;;;16.20;8.23;;;;;;;;;;5077500;28;22064;-67
2021/05/14 12:08:56;;;;;;;16.35;7.57;;;;;;;;;;5082900;28;20838;-66
2021/05/14 12:11:22;;;;;;;12.23;7.33;;;;;;;;;;5087116;28;20470;-67
2021/05/14 12:13:49;;;;;;;13.68;7.40;;;;;;;;;;5082653;28;20496;-67
2021/05/14 12:16:16;;;;;;;12.00;6.43;;;;;;;;;;5076507;28;20420;-67
2021/05/14 12:18:54;;;;;;;14.63;7.65;;;;;;;;;;5083902;28;20391;-67
2021/05/14 12:21:25;;;;;;;10.05;6.18;;;;;;;;;;5081329;28;20403;-67
2021/05/14 12:23:52;;;;;;;11.70;6.50;;;;;;;;;;5077772;28;20930;-66
2021/05/14 12:26:20;;;;;;;9.68;5.82;;;;;;;;;;5082272;28;20505;-67
2021/05/14 12:28:47;;;;;;;13.18;5.88;;;;;;;;;;5087322;28;20398;-66
2021/05/14 12:31:13;;;;;;;14.20;7.45;;;;;;;;;;5077261;28;20425;-67
2021/05/14 12:33:57;;;;;;;11.23;6.80;;;;;;;;;;5084054;28;20874;-67
2021/05/14 12:36:31;;;;;;;12.32;7.20;;;;;;;;;;5083656;28;20426;-67
2021/05/14 12:39:17;;;;;;;11.90;7.15;;;;;;;;;;5089117;28;21071;-67
2021/05/14 12:41:44;;;;;;;11.65;6.45;;;;;;;;;;5086292;28;20422;-67
2021/05/14 12:44:14;;;;;;;14.55;7.00;;;;;;;;;;5084616;28;20406;-67
2021/05/14 12:46:58;;;;;;;11.93;6.15;;;;;;;;;;5089140;28;20413;-66
2021/05/14 12:49:25;;;;;;;12.65;6.50;;;;;;;;;;5078515;28;20923;-67
2021/05/14 12:52:10;;;;;;;12.82;6.32;;;;;;;;;;5088518;28;20567;-66
2021/05/14 12:54:37;;;;;;;12.60;5.95;;;;;;;;;;5081652;28;20457;-67
2021/05/14 12:57:05;;;;;;;12.90;5.97;;;;;;;;;;5084639;28;20455;-69
2021/05/14 12:59:31;;;;;;;13.63;5.93;;;;;;;;;;5088900;28;20393;-68
2021/05/14 13:01:57;;;;;;;12.63;5.95;;;;;;;;;;5088283;28;20400;-69
2021/05/14 13:04:29;;;;;;;12.32;5.68;;;;;;;;;;5075576;28;20402;-67
2021/05/14 13:07:02;;;;;;;11.32;5.90;;;;;;;;;;5082394;28;20966;-67
2021/05/14 13:09:28;;;;;;;10.82;6.30;;;;;;;;;;5075935;28;20477;-67
2021/05/14 13:11:54;;;;;;;11.85;6.15;;;;;;;;;;5083995;28;20394;-67
2021/05/14 13:14:20;;;;;;;11.80;7.00;;;;;;;;;;5082979;28;20445;-66
2021/05/14 13:16:46;;;;;;;11.98;7.07;;;;;;;;;;5070146;28;20435;-67
2021/05/14 13:19:12;;;;;;;12.10;7.35;;;;;;;;;;5080386;28;20383;-67
2021/05/14 13:21:38;;;;;;;12.63;7.28;;;;;;;;;;5075946;28;20400;-68
2021/05/14 13:24:04;;;;;;;10.87;6.50;;;;;;;;;;5088112;28;20390;-68
2021/05/14 13:26:31;;;;;;;11.73;6.78;;;;;;;;;;5085371;28;20389;-68
2021/05/14 13:28:57;;;;;;;13.13;6.70;;;;;;;;;;5076268;28;20429;-67
2021/05/14 13:31:23;;;;;;;11.07;6.43;;;;;;;;;;5086533;28;20848;-67
2021/05/14 13:33:50;;;;;;;11.07;6.32;;;;;;;;;;5088889;28;20367;-67
2021/05/14 13:36:16;;;;;;;12.63;6.93;;;;;;;;;;5088520;28;20922;-68
2021/05/14 13:38:43;;;;;;;13.27;7.10;;;;;;;;;;5087936;28;20393;-67
2021/05/14 13:41:09;;;;;;;15.07;8.30;;;;;;;;;;5086843;28;20401;-67
2021/05/14 13:43:35;;;;;;;12.48;7.10;;;;;;;;;;5088222;28;20793;-68
2021/05/14 13:46:01;;;;;;;12.23;6.90;;;;;;;;;;5080394;28;20390;-68
2021/05/14 13:48:28;;;;;;;13.73;6.53;;;;;;;;;;5087214;28;20433;-68
2021/05/14 13:50:55;;;;;;;15.07;7.57;;;;;;;;;;5086429;28;20427;-68
2021/05/14 13:53:24;;;;;;;13.00;7.38;;;;;;;;;;5087778;28;20404;-68
2021/05/14 13:55:51;;;;;;;17.80;6.83;;;;;;;;;;5081466;28;20421;-69
2021/05/14 13:58:17;;;;;;;10.25;6.05;;;;;;;;;;5084845;28;20462;-67
2021/05/14 14:00:43;;;;;;;10.87;5.73;;;;;;;;;;5088988;28;20382;-68
2021/05/14 14:03:09;;;;;;;10.73;5.90;;;;;;;;;;5083681;28;20398;-68
2021/05/14 14:05:35;;;;;;;13.73;6.10;;;;;;;;;;5084373;28;21015;-67
2021/05/14 14:08:01;;;;;;;11.30;5.97;;;;;;;;;;5084079;28;20956;-69
2021/05/14 14:10:27;;;;;;;11.70;5.80;;;;;;;;;;5077419;28;20423;-67
2021/05/14 14:12:53;;;;;;;10.95;6.22;;;;;;;;;;5085683;28;20473;-67
2021/05/14 14:15:19;;;;;;;15.70;6.43;;;;;;;;;;5075952;28;20500;-67
2021/05/14 14:17:46;;;;;;;11.80;6.30;;;;;;;;;;5076071;28;20780;-67
2021/05/14 14:20:12;;;;;;;13.95;6.43;;;;;;;;;;5085357;28;20389;-67
2021/05/14 14:22:39;;;;;;;12.13;5.90;;;;;;;;;;5081756;28;20480;-67
2021/05/14 14:25:06;;;;;;;12.07;5.95;;;;;;;;;;5088559;28;20378;-68
2021/05/14 14:27:33;;;;;;;10.68;5.60;;;;;;;;;;5084417;28;21153;-68
2021/05/14 14:29:59;;;;;;;13.57;6.63;;;;;;;;;;5075875;28;20382;-68
2021/05/14 14:32:25;;;;;;;12.48;5.60;;;;;;;;;;5083134;28;20437;-68